createdAt,value
2018-08-28T00:02:30.155Z,19.70
2018-08-28T00:04:59.419Z,19.70
2018-08-28T00:07:27.695Z,19.60
2018-08-28T00:09:56.070Z,19.50
2018-08-28T00:12:24.477Z,19.40
2018-08-28T00:14:52.819Z,19.30
2018-08-28T00:17:21.120Z,19.50
2018-08-28T00:19:49.423Z,19.30
2018-08-28T00:22:17.796Z,19.50
2018-08-28T00:24:46.101Z,19.40
2018-08-28T00:27:14.382Z,19.40
2018-08-28T00:29:42.657Z,19.60
2018-08-28T00:32:10.932Z,19.60
2018-08-28T00:34:39.223Z,19.40
2018-08-28T00:37:07.524Z,19.40
2018-08-28T00:39:35.963Z,19.30
2018-08-28T00:42:04.264Z,19.30
2018-08-28T00:44:32.558Z,19.10
2018-08-28T00:47:00.814Z,19.10
2018-08-28T00:49:29.106Z,19.00
2018-08-28T00:51:57.383Z,18.90
2018-08-28T00:54:25.667Z,18.90
2018-08-28T00:56:53.947Z,18.90
2018-08-28T00:59:22.228Z,18.90
2018-08-28T01:01:50.494Z,18.80
2018-08-28T01:04:18.743Z,18.60
2018-08-28T01:06:47.007Z,18.70
2018-08-28T01:09:15.260Z,18.50
2018-08-28T01:11:43.521Z,18.40
2018-08-28T01:14:11.783Z,18.30
2018-08-28T01:16:40.047Z,18.30
2018-08-28T01:19:08.319Z,18.20
2018-08-28T01:21:36.634Z,18.10
2018-08-28T01:24:04.932Z,17.90
2018-08-28T01:26:33.181Z,17.80
2018-08-28T01:29:01.621Z,17.90
2018-08-28T01:31:29.891Z,17.90
2018-08-28T01:33:58.156Z,17.80
2018-08-28T01:36:26.458Z,17.70
2018-08-28T01:38:54.748Z,17.50
2018-08-28T01:41:23.000Z,17.40
2018-08-28T01:43:51.300Z,17.40
2018-08-28T01:46:19.566Z,17.10
2018-08-28T01:48:47.800Z,17.10
2018-08-28T01:51:16.077Z,17.00
2018-08-28T01:53:44.351Z,17.00
2018-08-28T01:56:12.897Z,16.90
2018-08-28T01:58:41.150Z,17.00
2018-08-28T02:01:09.423Z,16.90
2018-08-28T02:03:37.683Z,16.80
2018-08-28T02:06:06.024Z,16.70
2018-08-28T02:08:34.309Z,16.70
2018-08-28T02:11:02.568Z,16.60
2018-08-28T02:13:30.863Z,16.60
2018-08-28T02:15:59.164Z,16.60
2018-08-28T02:18:27.438Z,16.50
2018-08-28T02:20:55.724Z,16.50
2018-08-28T02:23:23.978Z,16.40
2018-08-28T02:25:52.312Z,16.30
2018-08-28T02:28:20.699Z,16.20
2018-08-28T02:30:48.993Z,16.20
2018-08-28T02:33:17.252Z,16.20
2018-08-28T02:35:45.480Z,16.10
2018-08-28T02:38:13.735Z,16.10
2018-08-28T02:40:42.283Z,16.00
2018-08-28T02:43:10.642Z,15.90
2018-08-28T02:45:38.954Z,15.90
2018-08-28T02:48:07.280Z,15.80
2018-08-28T02:50:35.743Z,15.80
2018-08-28T02:53:03.992Z,15.80
2018-08-28T02:55:32.269Z,15.70
2018-08-28T02:58:00.510Z,15.70
2018-08-28T03:00:28.863Z,15.60
2018-08-28T03:02:57.127Z,15.60
2018-08-28T03:05:25.354Z,15.60
2018-08-28T03:07:53.623Z,15.50
2018-08-28T03:10:21.930Z,15.40
2018-08-28T03:12:50.364Z,15.50
2018-08-28T03:15:18.680Z,15.40
2018-08-28T03:17:46.996Z,15.30
2018-08-28T03:20:15.255Z,15.20
2018-08-28T03:22:43.519Z,15.20
2018-08-28T03:25:11.804Z,15.20
2018-08-28T03:27:40.077Z,15.20
2018-08-28T03:30:08.326Z,15.30
2018-08-28T03:32:36.604Z,15.20
2018-08-28T03:35:04.916Z,15.10
2018-08-28T03:37:33.167Z,15.10
2018-08-28T03:40:01.439Z,15.10
2018-08-28T03:42:29.711Z,15.20
2018-08-28T03:44:57.977Z,15.20
2018-08-28T03:47:26.243Z,15.10
2018-08-28T03:49:54.467Z,15.10
2018-08-28T03:52:22.708Z,15.10
2018-08-28T03:54:51.091Z,15.00
2018-08-28T03:57:19.372Z,15.00
2018-08-28T03:59:47.672Z,15.00
2018-08-28T04:02:16.248Z,14.90
2018-08-28T04:04:44.714Z,14.90
2018-08-28T04:07:12.983Z,14.80
2018-08-28T04:09:41.266Z,14.80
2018-08-28T04:12:09.533Z,14.90
2018-08-28T04:14:37.787Z,14.80
2018-08-28T04:17:06.058Z,14.80
2018-08-28T04:19:34.290Z,14.70
2018-08-28T04:22:02.558Z,14.70
2018-08-28T04:24:30.843Z,14.60
2018-08-28T04:26:59.107Z,14.70
2018-08-28T04:29:27.348Z,14.70
2018-08-28T04:31:55.649Z,14.60
2018-08-28T04:34:23.882Z,14.60
2018-08-28T04:36:52.115Z,14.50
2018-08-28T04:39:20.395Z,14.50
2018-08-28T04:41:48.688Z,14.50
2018-08-28T04:44:16.920Z,14.50
2018-08-28T04:46:45.151Z,14.50
2018-08-28T04:49:13.407Z,14.50
2018-08-28T04:51:41.683Z,14.40
2018-08-28T04:54:09.961Z,14.50
2018-08-28T04:59:31.230Z,14.50
2018-08-28T05:01:59.528Z,14.50
2018-08-28T05:04:27.821Z,14.50
2018-08-28T05:06:56.059Z,14.50
2018-08-28T05:09:24.327Z,14.50
2018-08-28T05:11:52.752Z,14.50
2018-08-28T05:14:20.917Z,14.50
2018-08-28T05:16:49.176Z,14.50
2018-08-28T05:19:17.543Z,14.40
2018-08-28T05:21:45.764Z,14.50
2018-08-28T05:24:14.024Z,14.50
2018-08-28T05:26:42.312Z,14.50
2018-08-28T05:29:10.575Z,14.50
2018-08-28T05:31:38.904Z,14.60
2018-08-28T05:34:07.312Z,14.60
2018-08-28T05:36:35.791Z,14.70
2018-08-28T05:39:05.305Z,14.70
2018-08-28T05:41:33.546Z,14.80
2018-08-28T05:44:01.883Z,14.90
2018-08-28T05:46:30.135Z,15.00
2018-08-28T05:48:58.380Z,15.00
2018-08-28T05:51:26.663Z,15.00
2018-08-28T05:53:54.911Z,15.10
2018-08-28T05:56:23.175Z,15.10
2018-08-28T05:58:51.683Z,15.20
2018-08-28T06:01:19.983Z,15.20
2018-08-28T06:03:48.298Z,15.30
2018-08-28T06:06:16.587Z,15.40
2018-08-28T06:08:44.858Z,15.50
2018-08-28T06:11:13.118Z,15.60
2018-08-28T06:13:41.416Z,15.80
2018-08-28T06:16:09.670Z,15.90
2018-08-28T06:18:37.964Z,16.00
2018-08-28T06:21:06.237Z,16.00
2018-08-28T06:23:34.496Z,16.20
2018-08-28T06:26:02.777Z,16.50
2018-08-28T06:28:31.016Z,16.50
2018-08-28T06:30:59.280Z,16.40
2018-08-28T06:33:27.595Z,16.60
2018-08-28T06:35:56.019Z,16.70
2018-08-28T06:38:24.293Z,16.80
2018-08-28T06:40:52.995Z,16.90
2018-08-28T06:43:24.451Z,17.00
2018-08-28T06:45:53.015Z,17.10
2018-08-28T06:48:21.256Z,17.00
2018-08-28T06:50:49.503Z,17.10
2018-08-28T06:53:18.047Z,17.20
2018-08-28T06:55:48.794Z,17.20
2018-08-28T06:58:17.055Z,17.30
2018-08-28T07:00:45.334Z,17.30
2018-08-28T07:03:13.710Z,17.50
2018-08-28T07:05:42.107Z,17.60
2018-08-28T07:08:15.701Z,17.70
2018-08-28T07:10:44.944Z,17.80
2018-08-28T07:13:13.251Z,17.80
2018-08-28T07:15:41.557Z,17.90
2018-08-28T07:18:09.863Z,17.90
2018-08-28T07:20:38.190Z,18.10
2018-08-28T07:23:06.571Z,18.40
2018-08-28T07:25:35.046Z,18.50
2018-08-28T07:28:03.256Z,18.70
2018-08-28T07:30:43.005Z,19.00
2018-08-28T07:33:28.413Z,19.30
2018-08-28T07:35:56.733Z,19.30
2018-08-28T07:38:25.266Z,19.20
2018-08-28T07:40:55.612Z,19.10
2018-08-28T07:43:42.650Z,19.00
2018-08-28T07:46:16.815Z,19.40
2018-08-28T07:48:45.380Z,19.10
2018-08-28T07:51:19.375Z,19.50
2018-08-28T07:53:47.718Z,19.40
2018-08-28T07:56:16.008Z,19.40
2018-08-28T07:58:44.242Z,19.40
2018-08-28T08:01:12.521Z,19.60
2018-08-28T08:03:41.926Z,19.50
2018-08-28T08:06:10.315Z,19.60
2018-08-28T08:08:38.558Z,19.90
2018-08-28T08:11:06.860Z,19.80
2018-08-28T08:13:35.299Z,20.10
2018-08-28T08:16:03.687Z,20.10
2018-08-28T08:18:32.144Z,20.00
2018-08-28T08:21:00.434Z,20.30
2018-08-28T08:23:29.000Z,20.50
2018-08-28T08:25:57.328Z,20.30
2018-08-28T08:28:26.144Z,20.30
2018-08-28T08:30:54.916Z,20.70
2018-08-28T08:33:23.214Z,20.50
2018-08-28T08:35:57.590Z,20.70
2018-08-28T08:38:30.776Z,20.90
2018-08-28T08:41:00.495Z,20.80
2018-08-28T08:43:30.699Z,21.00
2018-08-28T08:46:01.286Z,20.90
2018-08-28T09:07:17.500Z,21.50
2018-08-28T09:09:47.205Z,21.10
2018-08-28T09:12:55.536Z,21.30
2018-08-28T09:15:28.186Z,21.50
2018-08-28T09:20:42.266Z,21.80
2018-08-28T09:23:10.827Z,21.80
2018-08-28T09:25:39.273Z,21.90
2018-08-28T09:28:07.697Z,21.80
2018-08-28T09:30:36.063Z,22.20
2018-08-28T09:35:42.631Z,22.00
2018-08-28T09:38:10.940Z,21.70
2018-08-28T09:40:45.219Z,21.70
2018-08-28T09:43:14.604Z,22.00
2018-08-28T09:48:28.532Z,23.00
2018-08-28T10:20:56.153Z,22.90
2018-08-28T10:24:05.684Z,23.40
2018-08-28T10:26:40.556Z,23.50
2018-08-28T10:29:18.121Z,23.00
2018-08-28T10:35:30.136Z,23.30
2018-08-28T10:38:24.072Z,23.30
2018-08-28T10:40:52.530Z,23.40
2018-08-28T10:43:21.748Z,22.90
2018-08-28T10:45:50.746Z,23.00
2018-08-28T10:48:19.309Z,23.00
2018-08-28T10:50:52.087Z,22.50
2018-08-28T10:56:09.834Z,22.50
2018-08-28T10:58:38.400Z,22.40
2018-08-28T11:01:06.730Z,22.50
2018-08-28T11:03:40.688Z,22.90
2018-08-28T11:06:09.374Z,23.00
2018-08-28T11:08:37.980Z,23.00
2018-08-28T11:11:06.564Z,23.10
2018-08-28T11:13:35.430Z,23.40
2018-08-28T11:16:04.134Z,22.80
2018-08-28T11:18:32.471Z,23.30
2018-08-28T11:21:00.770Z,24.10
2018-08-28T11:23:29.041Z,24.50
2018-08-28T11:25:57.596Z,24.30
2018-08-28T11:28:27.321Z,24.30
2018-08-28T11:30:55.923Z,24.30
2018-08-28T11:33:24.558Z,24.10
2018-08-28T11:35:52.950Z,23.80
2018-08-28T11:38:22.877Z,23.90
2018-08-28T11:40:51.495Z,24.00
2018-08-28T11:43:20.165Z,23.70
2018-08-28T11:45:48.667Z,23.70
2018-08-28T11:48:17.487Z,23.90
2018-08-28T11:50:46.232Z,23.70
2018-08-28T11:53:14.708Z,23.80
2018-08-28T11:55:43.117Z,23.90
2018-08-28T11:58:11.467Z,23.50
2018-08-28T12:00:39.984Z,23.60
2018-08-28T12:03:08.374Z,23.80
2018-08-28T12:05:36.772Z,23.70
2018-08-28T12:08:06.700Z,24.10
2018-08-28T12:10:35.035Z,24.30
2018-08-28T12:13:04.828Z,24.30
2018-08-28T12:15:33.459Z,24.20
2018-08-28T12:18:02.360Z,24.30
2018-08-28T12:20:31.272Z,25.00
2018-08-28T12:22:59.889Z,24.50
2018-08-28T12:25:28.391Z,24.30
2018-08-28T12:27:57.049Z,24.30
2018-08-28T12:30:25.398Z,24.20
2018-08-28T12:32:53.807Z,24.10
2018-08-28T12:35:22.137Z,24.00
2018-08-28T12:37:50.462Z,23.90
2018-08-28T12:40:18.742Z,24.30
2018-08-28T12:42:47.090Z,25.10
2018-08-28T12:45:15.487Z,25.30
2018-08-28T12:47:45.140Z,25.00
2018-08-28T12:50:13.801Z,24.90
2018-08-28T12:52:42.252Z,24.60
2018-08-28T12:55:10.612Z,24.80
2018-08-28T12:57:39.770Z,24.80
2018-08-28T13:00:08.451Z,25.20
2018-08-28T13:02:36.745Z,24.90
2018-08-28T13:05:05.162Z,25.10
2018-08-28T13:07:33.717Z,25.40
2018-08-28T13:10:03.467Z,25.40
2018-08-28T13:12:33.839Z,25.30
2018-08-28T13:15:02.408Z,25.00
2018-08-28T13:17:30.691Z,25.00
2018-08-28T13:20:00.097Z,25.30
2018-08-28T13:22:28.417Z,25.30
2018-08-28T13:24:56.790Z,25.40
2018-08-28T13:27:25.210Z,25.40
2018-08-28T13:29:54.027Z,25.80
2018-08-28T13:32:22.355Z,25.20
2018-08-28T13:34:50.650Z,25.10
2018-08-28T13:37:19.075Z,24.80
2018-08-28T13:39:47.389Z,24.70
2018-08-28T13:42:15.876Z,25.20
2018-08-28T13:44:44.416Z,25.40
2018-08-28T13:47:13.207Z,25.50
2018-08-28T13:49:41.351Z,25.20
2018-08-28T13:52:09.697Z,26.00
2018-08-28T13:54:38.997Z,26.40
2018-08-28T13:57:07.684Z,26.30
2018-08-28T13:59:36.170Z,26.30
2018-08-28T14:02:05.124Z,26.10
2018-08-28T14:04:33.697Z,25.50
2018-08-28T14:07:03.645Z,25.40
2018-08-28T14:09:31.960Z,25.40
2018-08-28T14:12:00.380Z,26.00
2018-08-28T14:14:28.859Z,26.30
2018-08-28T14:16:57.162Z,26.50
2018-08-28T14:19:25.563Z,26.20
2018-08-28T14:21:53.935Z,26.30
2018-08-28T14:24:22.374Z,26.10
2018-08-28T14:26:51.691Z,26.20
2018-08-28T14:29:20.707Z,26.20
2018-08-28T14:31:48.870Z,26.20
2018-08-28T14:34:17.326Z,26.50
2018-08-28T14:36:45.659Z,26.70
2018-08-28T14:39:14.126Z,26.90
2018-08-28T14:41:42.569Z,27.20
2018-08-28T14:44:10.972Z,27.30
2018-08-28T14:46:39.457Z,27.90
2018-08-28T14:49:07.828Z,28.00
2018-08-28T14:51:38.392Z,27.80
2018-08-28T14:54:07.257Z,27.50
2018-08-28T14:56:35.740Z,27.40
2018-08-28T14:59:06.422Z,26.90
2018-08-28T15:01:34.893Z,27.40
2018-08-28T15:04:04.195Z,27.50
2018-08-28T15:06:32.704Z,27.80
2018-08-28T15:09:01.196Z,27.50
2018-08-28T15:11:29.508Z,27.30
2018-08-28T15:13:58.882Z,27.60
2018-08-28T15:16:27.476Z,27.40
2018-08-28T15:18:55.726Z,27.80
2018-08-28T15:21:26.325Z,27.70
2018-08-28T15:23:54.672Z,27.70
2018-08-28T15:26:23.102Z,28.00
2018-08-28T15:28:51.575Z,27.80
2018-08-28T15:31:19.927Z,27.80
2018-08-28T15:33:48.254Z,27.90
2018-08-28T15:36:17.047Z,28.20
2018-08-28T15:38:48.246Z,28.30
2018-08-28T15:41:16.491Z,28.40
2018-08-28T15:43:44.822Z,28.00
2018-08-28T15:46:13.180Z,28.90
2018-08-28T15:48:41.475Z,29.50
2018-08-28T15:51:09.880Z,29.60
2018-08-28T15:53:38.745Z,29.60
2018-08-28T15:56:11.283Z,29.80
2018-08-28T15:58:39.849Z,29.40
2018-08-28T16:01:08.179Z,29.20
2018-08-28T16:03:36.507Z,29.60
2018-08-28T16:06:04.987Z,30.00
2018-08-28T16:08:33.404Z,30.80
2018-08-28T16:11:01.718Z,30.50
2018-08-28T16:13:30.859Z,30.00
2018-08-28T16:15:59.301Z,29.60
2018-08-28T16:18:27.747Z,29.70
2018-08-28T16:20:56.144Z,29.80
2018-08-28T16:23:29.095Z,29.60
2018-08-28T16:25:57.441Z,29.50
2018-08-28T16:28:26.115Z,29.50
2018-08-28T16:30:54.411Z,29.40
2018-08-28T16:33:23.942Z,29.30
2018-08-28T16:35:52.428Z,29.50
2018-08-28T16:38:21.192Z,29.30
2018-08-28T17:41:55.708Z,25.20
2018-08-28T17:44:30.369Z,25.20
2018-08-28T17:47:02.448Z,25.00
2018-08-28T17:49:33.047Z,24.80
2018-08-28T17:52:04.982Z,24.80
2018-08-28T17:54:33.966Z,24.70
2018-08-28T17:57:02.691Z,24.60
2018-08-28T17:59:31.853Z,24.60
2018-08-28T18:02:00.795Z,24.50
2018-08-28T18:04:31.104Z,24.50
2018-08-28T18:07:02.449Z,24.40
2018-08-28T18:09:31.233Z,24.30
2018-08-28T18:11:59.914Z,24.20
2018-08-28T18:14:28.458Z,24.00
2018-08-28T18:16:57.442Z,23.90
2018-08-28T18:19:26.312Z,23.80
2018-08-28T18:21:58.423Z,23.60
2018-08-28T18:24:27.391Z,23.50
2018-08-28T18:26:56.097Z,23.40
2018-08-28T18:29:28.572Z,23.30
2018-08-28T18:31:57.872Z,23.00
2018-08-28T18:34:26.283Z,22.80
2018-08-28T18:36:54.991Z,22.80
2018-08-28T18:39:27.967Z,22.80
2018-08-28T18:41:56.602Z,22.70
2018-08-28T18:44:24.920Z,22.60
2018-08-28T18:46:53.496Z,22.50
2018-08-28T18:49:21.768Z,22.30
2018-08-28T18:51:50.107Z,22.20
2018-08-28T18:54:18.409Z,22.10
2018-08-28T18:56:47.015Z,22.00
2018-08-28T18:59:15.400Z,21.90
2018-08-28T19:01:44.278Z,21.90
2018-08-28T19:04:12.610Z,21.80
2018-08-28T19:06:40.961Z,21.70
2018-08-28T19:09:09.358Z,21.60
2018-08-28T19:11:38.060Z,21.50
2018-08-28T19:14:07.338Z,21.50
2018-08-28T19:16:37.687Z,21.50
2018-08-28T19:19:07.321Z,21.40
2018-08-28T19:21:40.336Z,21.20
2018-08-28T19:24:10.358Z,21.20
2018-08-28T19:26:48.819Z,21.10
2018-08-28T19:29:17.701Z,21.00
2018-08-28T19:31:46.887Z,20.90
2018-08-28T19:34:16.006Z,20.90
2018-08-28T19:36:47.608Z,20.70
2018-08-28T19:39:16.867Z,20.70
2018-08-28T19:41:46.003Z,20.60
2018-08-28T19:44:15.490Z,20.60
2018-08-28T19:46:44.707Z,20.60
2018-08-28T19:49:13.349Z,20.40
2018-08-28T20:07:12.549Z,20.30
2018-08-28T20:19:25.404Z,19.80
2018-08-28T20:22:04.107Z,19.70
2018-08-28T20:24:37.368Z,19.60
2018-08-28T20:27:31.192Z,19.60
2018-08-28T20:54:08.131Z,19.50
2018-08-28T20:56:36.422Z,19.10
2018-08-28T20:59:04.887Z,19.20
2018-08-28T21:01:33.163Z,19.10
2018-08-28T21:04:01.487Z,19.00
2018-08-28T21:06:29.834Z,19.00
2018-08-28T21:08:58.260Z,19.00
2018-08-28T21:11:27.099Z,18.90
2018-08-28T21:13:55.323Z,18.90
2018-08-28T21:16:23.563Z,18.90
2018-08-28T21:18:54.956Z,18.80
2018-08-28T21:21:23.178Z,18.70
2018-08-28T21:23:51.464Z,18.90
2018-08-28T21:26:19.712Z,18.70
2018-08-28T21:28:48.020Z,18.70
2018-08-28T21:31:16.240Z,18.70
2018-08-28T21:33:44.494Z,18.60
2018-08-28T21:36:12.717Z,18.60
2018-08-28T21:38:40.958Z,18.60
2018-08-28T21:41:09.193Z,18.60
2018-08-28T21:43:37.455Z,18.50
2018-08-28T21:46:05.687Z,18.50
2018-08-28T21:48:33.958Z,18.50
2018-08-28T21:51:02.217Z,18.40
2018-08-28T21:53:30.496Z,18.50
2018-08-28T21:55:58.970Z,18.50
2018-08-28T21:58:27.251Z,18.40
2018-08-28T22:01:00.782Z,18.40
2018-08-28T22:03:29.007Z,18.30
2018-08-28T22:05:57.254Z,18.30
2018-08-28T22:08:25.499Z,18.10
2018-08-28T22:10:53.768Z,18.10
2018-08-28T22:13:22.084Z,18.10
2018-08-28T22:15:50.290Z,18.00
2018-08-28T22:18:18.516Z,17.90
2018-08-28T22:20:51.979Z,17.90
2018-08-28T22:23:20.256Z,17.80
2018-08-28T22:25:48.491Z,17.80
2018-08-28T22:28:16.738Z,17.70
2018-08-28T22:30:45.023Z,17.60
2018-08-28T22:33:13.303Z,17.60
2018-08-28T22:35:41.974Z,17.50
2018-08-28T22:38:10.210Z,17.50
2018-08-28T22:40:38.465Z,17.50
2018-08-28T22:43:06.722Z,17.50
2018-08-28T22:45:35.633Z,17.30
2018-08-28T22:48:03.952Z,17.20
2018-08-28T22:50:32.247Z,17.30
2018-08-28T22:53:00.479Z,17.20
2018-08-28T22:55:28.710Z,17.20
2018-08-28T22:57:56.954Z,17.20
2018-08-28T23:00:25.183Z,17.10
2018-08-28T23:02:54.822Z,17.20
2018-08-28T23:05:23.015Z,17.10
2018-08-28T23:07:51.636Z,17.00
2018-08-28T23:10:19.979Z,17.00
2018-08-28T23:12:48.282Z,17.00
2018-08-28T23:15:16.561Z,17.00
2018-08-28T23:17:44.790Z,16.80
2018-08-28T23:20:13.035Z,16.80
2018-08-28T23:22:41.263Z,16.80
2018-08-28T23:25:09.520Z,16.60
2018-08-28T23:27:37.800Z,16.60
2018-08-28T23:30:06.368Z,16.60
2018-08-28T23:32:34.790Z,16.60
2018-08-28T23:35:03.188Z,16.60
2018-08-28T23:37:31.510Z,16.60
2018-08-28T23:39:59.758Z,16.50
2018-08-28T23:42:28.339Z,16.50
2018-08-28T23:44:56.635Z,16.50
2018-08-28T23:47:24.867Z,16.50
2018-08-28T23:49:53.154Z,16.30
2018-08-28T23:52:21.390Z,16.40
2018-08-28T23:54:49.619Z,16.30
2018-08-28T23:57:17.875Z,16.20
2018-08-28T23:59:46.131Z,16.10
